createdAt,value
2023-04-16T00:01:37.247Z,87.36
2023-04-16T00:05:01.520Z,87.50
2023-04-16T00:08:26.475Z,87.31
2023-04-16T00:11:48.119Z,87.23
2023-04-16T00:15:10.034Z,86.98
2023-04-16T00:18:33.686Z,86.59
2023-04-16T00:21:55.501Z,86.86
2023-04-16T00:25:17.146Z,87.38
2023-04-16T00:28:38.759Z,87.83
2023-04-16T00:32:03.253Z,87.70
2023-04-16T00:35:24.845Z,86.70
2023-04-16T00:38:46.445Z,86.94
2023-04-16T00:42:10.444Z,87.46
2023-04-16T00:45:32.244Z,87.00
2023-04-16T00:48:54.449Z,87.39
2023-04-16T00:52:18.317Z,86.39
2023-04-16T00:55:40.798Z,86.00
2023-04-16T00:59:02.519Z,85.83
2023-04-16T01:02:24.647Z,86.91
2023-04-16T01:05:49.453Z,87.68
2023-04-16T01:09:11.821Z,87.96
2023-04-16T01:12:33.413Z,87.40
2023-04-16T01:15:57.587Z,87.39
2023-04-16T01:19:19.416Z,87.35
2023-04-16T01:22:43.531Z,87.33
2023-04-16T01:26:05.160Z,87.80
2023-04-16T01:29:29.404Z,87.93
2023-04-16T01:32:51.618Z,88.45
2023-04-16T01:36:16.284Z,88.33
2023-04-16T01:39:37.974Z,86.04
2023-04-16T01:42:59.608Z,86.36
2023-04-16T01:46:29.627Z,87.00
2023-04-16T01:49:51.460Z,87.17
2023-04-16T01:53:13.058Z,87.41
2023-04-16T01:56:36.855Z,87.66
2023-04-16T01:59:58.513Z,88.12
2023-04-16T02:03:20.513Z,88.49
2023-04-16T02:06:44.687Z,88.26
2023-04-16T02:10:07.548Z,88.68
2023-04-16T02:13:29.152Z,88.50
2023-04-16T02:16:53.000Z,88.29
2023-04-16T02:20:17.757Z,87.28
2023-04-16T02:23:41.088Z,85.74
2023-04-16T02:27:07.570Z,86.33
2023-04-16T02:30:29.134Z,86.65
2023-04-16T02:33:51.050Z,86.91
2023-04-16T02:37:12.647Z,86.11
2023-04-16T02:40:34.679Z,86.68
2023-04-16T02:43:56.755Z,87.03
2023-04-16T02:47:18.372Z,86.25
2023-04-16T02:50:40.019Z,86.89
2023-04-16T02:54:03.118Z,86.26
2023-04-16T02:57:27.145Z,87.36
2023-04-16T03:00:50.993Z,87.95
2023-04-16T03:04:12.665Z,88.63
2023-04-16T03:07:36.668Z,88.05
2023-04-16T03:11:00.853Z,87.92
2023-04-16T03:14:22.514Z,87.69
2023-04-16T03:17:44.133Z,88.11
2023-04-16T03:21:06.001Z,87.82
2023-04-16T03:24:29.996Z,88.01
2023-04-16T03:27:51.668Z,88.43
2023-04-16T03:31:18.549Z,88.99
2023-04-16T03:34:40.593Z,89.25
2023-04-16T03:38:02.227Z,88.86
2023-04-16T03:41:23.965Z,88.05
2023-04-16T03:44:45.662Z,87.71
2023-04-16T03:48:07.342Z,87.76
2023-04-16T03:51:31.402Z,87.56
2023-04-16T03:54:53.014Z,87.29
2023-04-16T03:58:14.589Z,87.13
2023-04-16T04:01:38.493Z,87.42
2023-04-16T04:05:05.293Z,88.40
2023-04-16T04:08:27.020Z,88.31
2023-04-16T04:11:48.600Z,88.00
2023-04-16T04:15:10.954Z,87.01
2023-04-16T04:18:34.691Z,87.15
2023-04-16T04:21:56.381Z,87.56
2023-04-16T04:25:20.749Z,87.23
2023-04-16T04:28:42.375Z,87.13
2023-04-16T04:32:04.151Z,87.66
2023-04-16T04:35:28.343Z,87.16
2023-04-16T04:38:52.812Z,87.29
2023-04-16T04:42:20.162Z,87.33
2023-04-16T04:45:44.512Z,87.73
2023-04-16T04:49:08.764Z,87.88
2023-04-16T04:52:30.628Z,87.66
2023-04-16T04:55:54.198Z,86.42
2023-04-16T04:59:20.884Z,86.85
2023-04-16T05:02:42.758Z,85.79
2023-04-16T05:06:04.572Z,86.63
2023-04-16T05:09:28.404Z,87.41
2023-04-16T05:12:52.208Z,87.07
2023-04-16T05:16:16.408Z,86.56
2023-04-16T05:19:40.483Z,86.84
2023-04-16T05:23:06.592Z,86.60
2023-04-16T05:26:33.055Z,86.99
2023-04-16T05:29:54.634Z,87.16
2023-04-16T05:33:18.243Z,86.89
2023-04-16T05:36:39.895Z,86.95
2023-04-16T05:40:01.490Z,87.04
2023-04-16T05:43:24.514Z,86.97
2023-04-16T05:46:46.108Z,86.72
2023-04-16T05:50:10.635Z,86.67
2023-04-16T05:53:32.201Z,86.40
2023-04-16T05:56:53.806Z,86.34
2023-04-16T06:00:15.512Z,86.37
2023-04-16T06:03:37.201Z,86.38
2023-04-16T06:07:01.552Z,86.68
2023-04-16T06:10:25.777Z,86.06
2023-04-16T06:13:47.433Z,85.47
2023-04-16T06:17:09.032Z,86.13
2023-04-16T06:20:30.848Z,85.56
2023-04-16T06:23:52.606Z,84.53
2023-04-16T06:27:14.146Z,83.34
2023-04-16T06:30:39.071Z,83.37
2023-04-16T06:34:03.600Z,84.56
2023-04-16T06:37:25.429Z,83.45
2023-04-16T06:40:51.028Z,83.98
2023-04-16T06:44:15.035Z,83.32
2023-04-16T06:47:36.653Z,82.32
2023-04-16T06:50:58.341Z,81.94
2023-04-16T06:54:20.187Z,81.10
2023-04-16T06:57:44.258Z,80.81
2023-04-16T07:01:06.076Z,80.71
2023-04-16T07:04:29.743Z,79.69
2023-04-16T07:07:51.297Z,78.25
2023-04-16T07:11:13.521Z,78.60
2023-04-16T07:14:35.104Z,76.95
2023-04-16T07:17:56.762Z,75.49
2023-04-16T07:21:18.431Z,73.45
2023-04-16T07:24:40.085Z,72.00
2023-04-16T07:28:04.205Z,72.19
2023-04-16T07:31:28.069Z,73.15
2023-04-16T07:34:49.652Z,73.44
2023-04-16T07:38:11.364Z,74.10
2023-04-16T07:41:33.453Z,74.05
2023-04-16T07:44:55.459Z,74.23
2023-04-16T07:48:19.494Z,73.46
2023-04-16T07:51:46.977Z,72.16
2023-04-16T07:55:09.323Z,73.11
2023-04-16T07:58:33.028Z,72.62
2023-04-16T08:01:56.901Z,72.31
2023-04-16T08:05:18.661Z,72.17
2023-04-16T08:08:42.805Z,71.93
2023-04-16T08:12:04.697Z,72.10
2023-04-16T08:15:26.639Z,70.59
2023-04-16T08:18:51.016Z,70.60
2023-04-16T08:22:13.538Z,69.40
2023-04-16T08:25:38.425Z,69.07
2023-04-16T08:28:59.997Z,69.67
2023-04-16T08:32:24.713Z,69.28
2023-04-16T08:35:46.317Z,69.79
2023-04-16T08:39:10.929Z,69.45
2023-04-16T08:42:38.912Z,67.97
2023-04-16T08:46:01.412Z,68.15
2023-04-16T08:49:26.996Z,68.01
2023-04-16T08:53:03.975Z,68.11
2023-04-16T08:56:26.597Z,68.08
2023-04-16T08:59:48.810Z,67.59
2023-04-16T09:03:12.966Z,69.66
2023-04-16T09:06:36.523Z,70.86
2023-04-16T09:10:00.072Z,70.62
2023-04-16T09:13:24.890Z,71.58
2023-04-16T09:16:49.525Z,70.53
2023-04-16T09:20:11.346Z,71.70
2023-04-16T09:23:38.452Z,71.79
2023-04-16T09:27:01.086Z,71.23
2023-04-16T09:30:24.167Z,70.73
2023-04-16T09:34:09.082Z,70.88
2023-04-16T09:37:33.724Z,70.92
2023-04-16T09:41:08.644Z,71.10
2023-04-16T09:44:38.513Z,70.61
2023-04-16T09:48:05.189Z,70.60
2023-04-16T09:51:37.340Z,68.20
2023-04-16T09:55:00.192Z,66.78
2023-04-16T09:58:24.676Z,64.77
2023-04-16T10:01:57.333Z,64.47
2023-04-16T10:05:35.123Z,65.33
2023-04-16T10:08:57.278Z,64.29
2023-04-16T10:12:21.988Z,64.17
2023-04-16T10:15:48.371Z,64.90
2023-04-16T10:19:10.421Z,64.12
2023-04-16T10:22:34.963Z,64.49
2023-04-16T10:25:58.378Z,59.27
2023-04-16T10:29:21.343Z,59.36
2023-04-16T10:32:46.490Z,59.99
2023-04-16T10:36:19.020Z,55.67
2023-04-16T10:39:40.705Z,53.61
2023-04-16T10:43:07.192Z,50.59
2023-04-16T10:46:39.086Z,51.08
2023-04-16T10:50:19.446Z,48.75
2023-04-16T10:53:41.197Z,49.62
2023-04-16T10:57:16.320Z,53.85
2023-04-16T11:00:52.747Z,52.13
2023-04-16T11:04:20.301Z,50.50
2023-04-16T11:07:49.611Z,52.34
2023-04-16T11:11:12.242Z,46.81
2023-04-16T11:14:33.975Z,52.06
2023-04-16T11:17:58.011Z,47.65
2023-04-16T11:21:20.118Z,45.71
2023-04-16T11:24:41.769Z,44.99
2023-04-16T11:28:05.388Z,45.76
2023-04-16T11:31:27.439Z,44.59
2023-04-16T11:34:49.154Z,46.30
2023-04-16T11:38:13.060Z,47.29
2023-04-16T11:41:34.656Z,45.56
2023-04-16T11:45:00.639Z,46.85
2023-04-16T11:48:22.274Z,46.12
2023-04-16T11:51:47.557Z,47.86
2023-04-16T11:55:09.300Z,49.75
2023-04-16T11:58:33.129Z,49.67
2023-04-16T12:02:00.851Z,46.61
2023-04-16T12:05:35.376Z,47.21
2023-04-16T12:08:56.956Z,48.90
2023-04-16T12:12:34.853Z,49.79
2023-04-16T12:15:57.190Z,50.64
2023-04-16T12:19:18.924Z,49.71
2023-04-16T12:22:44.591Z,52.38
2023-04-16T12:26:12.545Z,52.52
2023-04-16T12:29:34.202Z,53.55
2023-04-16T12:33:16.599Z,57.62
2023-04-16T12:36:43.397Z,55.41
2023-04-16T12:40:06.283Z,55.39
2023-04-16T12:43:30.191Z,51.64
2023-04-16T12:46:54.161Z,51.72
2023-04-16T12:50:15.706Z,51.21
2023-04-16T12:53:39.514Z,44.03
2023-04-16T12:57:03.578Z,45.14
2023-04-16T13:00:25.497Z,44.02
2023-04-16T13:03:49.847Z,45.67
2023-04-16T13:07:11.587Z,45.81
2023-04-16T13:10:33.268Z,46.35
2023-04-16T13:13:54.953Z,45.62
2023-04-16T13:17:16.539Z,45.76
2023-04-16T13:20:41.570Z,45.40
2023-04-16T13:24:03.390Z,43.64
2023-04-16T13:27:27.184Z,44.19
2023-04-16T13:30:48.897Z,44.40
2023-04-16T13:34:10.774Z,43.97
2023-04-16T13:37:32.425Z,43.94
2023-04-16T13:40:54.094Z,43.39
2023-04-16T13:44:15.658Z,43.51
2023-04-16T13:47:41.623Z,43.26
2023-04-16T13:51:06.124Z,44.91
2023-04-16T13:54:30.028Z,43.00
2023-04-16T13:57:53.321Z,44.69
2023-04-16T14:01:15.037Z,44.40
2023-04-16T14:04:36.746Z,43.96
2023-04-16T14:07:58.325Z,45.69
2023-04-16T14:11:19.876Z,43.86
2023-04-16T14:14:42.163Z,43.71
2023-04-16T14:18:04.118Z,44.97
2023-04-16T14:21:27.059Z,44.32
2023-04-16T14:24:48.614Z,43.40
2023-04-16T14:28:10.716Z,44.00
2023-04-16T14:31:35.048Z,44.62
2023-04-16T14:34:57.405Z,45.98
2023-04-16T14:38:19.034Z,44.93
2023-04-16T14:41:41.211Z,44.71
2023-04-16T14:45:06.358Z,46.03
2023-04-16T14:48:28.247Z,44.78
2023-04-16T14:51:49.917Z,44.96
2023-04-16T14:55:11.556Z,44.41
2023-04-16T14:58:33.155Z,45.01
2023-04-16T15:01:56.880Z,46.31
2023-04-16T15:05:20.922Z,45.56
2023-04-16T15:08:47.571Z,44.09
2023-04-16T15:12:09.272Z,44.13
2023-04-16T15:15:33.430Z,44.13
2023-04-16T15:18:57.840Z,44.30
2023-04-16T15:22:19.475Z,44.89
2023-04-16T15:25:45.638Z,46.58
2023-04-16T15:29:09.561Z,45.75
2023-04-16T15:32:33.558Z,47.13
2023-04-16T15:35:59.673Z,47.24
2023-04-16T15:39:21.689Z,47.33
2023-04-16T15:42:43.455Z,47.31
2023-04-16T15:46:05.243Z,47.07
2023-04-16T15:49:27.108Z,48.37
2023-04-16T15:52:48.828Z,48.51
2023-04-16T15:56:10.612Z,49.61
2023-04-16T15:59:32.775Z,50.53
2023-04-16T16:02:54.553Z,51.01
2023-04-16T16:06:20.821Z,51.60
2023-04-16T16:09:42.824Z,51.30
2023-04-16T16:13:07.996Z,52.57
2023-04-16T16:16:29.678Z,52.51
2023-04-16T16:19:52.411Z,52.56
2023-04-16T16:23:14.004Z,53.17
2023-04-16T16:26:35.563Z,53.77
2023-04-16T16:29:57.244Z,53.24
2023-04-16T16:33:22.327Z,54.31
2023-04-16T16:36:48.719Z,54.66
2023-04-16T16:40:13.075Z,54.17
2023-04-16T16:43:37.692Z,53.60
2023-04-16T16:46:59.692Z,54.74
2023-04-16T16:50:24.025Z,53.75
2023-04-16T16:53:48.489Z,55.09
2023-04-16T16:57:10.152Z,54.73
2023-04-16T17:00:31.887Z,55.49
2023-04-16T17:03:53.956Z,56.04
2023-04-16T17:07:15.750Z,56.47
2023-04-16T17:10:40.045Z,56.12
2023-04-16T17:14:04.044Z,56.42
2023-04-16T17:17:28.912Z,56.86
2023-04-16T17:20:50.515Z,56.93
2023-04-16T17:24:12.438Z,57.36
2023-04-16T17:27:34.456Z,57.48
2023-04-16T17:31:01.703Z,57.69
2023-04-16T17:34:23.871Z,57.78
2023-04-16T17:37:47.552Z,58.33
2023-04-16T17:41:11.555Z,58.68
2023-04-16T17:44:35.233Z,58.76
2023-04-16T17:47:56.846Z,57.83
2023-04-16T17:51:21.134Z,56.65
2023-04-16T17:54:48.404Z,55.88
2023-04-16T17:58:10.133Z,56.48
2023-04-16T18:01:34.317Z,56.97
2023-04-16T18:04:58.805Z,57.21
2023-04-16T18:08:23.180Z,57.68
2023-04-16T18:11:45.250Z,57.93
2023-04-16T18:15:10.081Z,57.75
2023-04-16T18:18:34.312Z,58.88
2023-04-16T18:22:01.493Z,59.26
2023-04-16T18:25:32.230Z,59.49
2023-04-16T18:28:56.506Z,59.00
2023-04-16T18:32:21.770Z,59.94
2023-04-16T18:35:43.414Z,60.24
2023-04-16T18:39:05.015Z,60.89
2023-04-16T18:42:29.327Z,60.94
2023-04-16T18:45:51.334Z,61.83
2023-04-16T18:49:13.383Z,61.86
2023-04-16T18:52:35.881Z,61.68
2023-04-16T18:55:59.916Z,62.74
2023-04-16T18:59:21.860Z,63.00
2023-04-16T19:02:45.825Z,63.15
2023-04-16T19:06:07.805Z,63.97
2023-04-16T19:09:32.496Z,64.03
2023-04-16T19:12:57.376Z,63.94
2023-04-16T19:16:21.125Z,64.81
2023-04-16T19:19:47.362Z,64.73
2023-04-16T19:23:09.264Z,65.19
2023-04-16T19:26:31.063Z,65.43
2023-04-16T19:29:52.899Z,65.54
2023-04-16T19:33:14.565Z,65.40
2023-04-16T19:36:36.211Z,65.26
2023-04-16T19:39:57.832Z,65.53
2023-04-16T19:43:19.491Z,65.66
2023-04-16T19:46:41.208Z,65.82
2023-04-16T19:50:03.005Z,66.04
2023-04-16T19:53:25.168Z,66.24
2023-04-16T19:56:49.311Z,66.05
2023-04-16T20:00:18.153Z,65.63
2023-04-16T20:03:39.833Z,65.93
2023-04-16T20:07:01.486Z,65.94
2023-04-16T20:10:23.646Z,66.48
2023-04-16T20:13:48.808Z,66.30
2023-04-16T20:17:10.506Z,66.14
2023-04-16T20:20:35.689Z,66.22
2023-04-16T20:23:59.411Z,66.22
2023-04-16T20:27:26.024Z,66.37
2023-04-16T20:30:51.019Z,66.51
2023-04-16T20:34:12.870Z,66.38
2023-04-16T20:37:38.065Z,65.80
2023-04-16T20:41:10.404Z,65.22
2023-04-16T20:44:40.462Z,65.41
2023-04-16T20:48:02.459Z,65.52
2023-04-16T20:51:27.530Z,65.31
2023-04-16T20:54:52.236Z,65.36
2023-04-16T20:58:13.787Z,65.44
2023-04-16T21:01:35.557Z,65.86
2023-04-16T21:04:59.508Z,65.33
2023-04-16T21:08:24.890Z,65.81
2023-04-16T21:11:48.707Z,65.88
2023-04-16T21:15:13.113Z,64.84
2023-04-16T21:18:37.040Z,65.49
2023-04-16T21:21:58.628Z,65.64
2023-04-16T21:25:22.248Z,65.53
2023-04-16T21:28:43.857Z,65.89
2023-04-16T21:32:07.697Z,65.55
2023-04-16T21:35:34.080Z,65.01
2023-04-16T21:38:55.856Z,65.31
2023-04-16T21:42:17.498Z,65.03
2023-04-16T21:45:39.809Z,65.60
2023-04-16T21:49:01.452Z,65.09
2023-04-16T21:52:23.026Z,65.54
2023-04-16T21:55:44.772Z,65.30
2023-04-16T21:59:08.943Z,65.31
2023-04-16T22:02:34.101Z,65.63
2023-04-16T22:06:06.636Z,65.29
2023-04-16T22:09:28.231Z,65.47
2023-04-16T22:12:54.836Z,65.17
2023-04-16T22:16:19.247Z,65.80
2023-04-16T22:19:42.420Z,65.92
2023-04-16T22:23:04.005Z,66.49
2023-04-16T22:26:27.622Z,66.81
2023-04-16T22:29:51.514Z,66.67
2023-04-16T22:33:15.673Z,67.20
2023-04-16T22:36:39.908Z,67.87
2023-04-16T22:40:01.836Z,67.80
2023-04-16T22:43:25.804Z,67.85
2023-04-16T22:46:49.605Z,67.48
2023-04-16T22:50:13.592Z,67.93
2023-04-16T22:53:35.930Z,67.91
2023-04-16T22:56:58.430Z,68.14
2023-04-16T23:00:20.845Z,67.76
2023-04-16T23:03:42.486Z,67.33
2023-04-16T23:07:04.191Z,66.97
2023-04-16T23:10:25.961Z,66.78
2023-04-16T23:13:50.070Z,66.93
2023-04-16T23:17:16.967Z,65.98
2023-04-16T23:20:38.637Z,66.07
2023-04-16T23:24:00.246Z,65.32
2023-04-16T23:27:24.310Z,65.13
2023-04-16T23:30:48.882Z,64.79
2023-04-16T23:34:10.575Z,64.70
2023-04-16T23:37:34.941Z,64.90
2023-04-16T23:40:56.545Z,64.85
2023-04-16T23:44:18.168Z,64.66
2023-04-16T23:47:44.789Z,64.34
2023-04-16T23:51:06.534Z,63.93
2023-04-16T23:54:28.145Z,64.08
2023-04-16T23:57:50.103Z,63.69
